createdAt,value
2023-02-18T00:00:37.162Z,48.42
2023-02-18T00:02:38.505Z,48.08
2023-02-18T00:04:39.926Z,48.61
2023-02-18T00:06:41.259Z,48.75
2023-02-18T00:08:42.601Z,48.92
2023-02-18T00:10:44.110Z,49.00
2023-02-18T00:12:45.432Z,48.68
2023-02-18T00:14:46.729Z,49.05
2023-02-18T00:16:48.028Z,49.19
2023-02-18T00:18:49.331Z,49.57
2023-02-18T00:20:50.644Z,49.65
2023-02-18T00:22:51.981Z,50.01
2023-02-18T00:24:53.405Z,50.19
2023-02-18T00:26:54.695Z,49.92
2023-02-18T00:28:56.011Z,50.20
2023-02-18T00:30:57.349Z,50.05
2023-02-18T00:32:58.689Z,49.95
2023-02-18T00:35:00.025Z,50.50
2023-02-18T00:37:01.319Z,50.05
2023-02-18T00:39:03.948Z,50.24
2023-02-18T00:41:05.286Z,50.29
2023-02-18T00:43:06.580Z,50.89
2023-02-18T00:45:07.923Z,50.93
2023-02-18T00:47:09.223Z,50.63
2023-02-18T00:49:10.548Z,51.20
2023-02-18T00:51:11.871Z,50.91
2023-02-18T00:53:13.173Z,51.38
2023-02-18T00:55:14.540Z,51.47
2023-02-18T00:57:15.861Z,51.53
2023-02-18T00:59:17.154Z,51.36
2023-02-18T01:01:18.486Z,51.69
2023-02-18T01:03:19.897Z,51.37
2023-02-18T01:05:21.227Z,51.33
2023-02-18T01:07:22.552Z,51.62
2023-02-18T01:09:25.798Z,51.83
2023-02-18T01:11:27.143Z,52.46
2023-02-18T01:13:28.487Z,52.30
2023-02-18T01:15:29.830Z,52.24
2023-02-18T01:17:31.146Z,52.70
2023-02-18T01:19:32.444Z,52.56
2023-02-18T01:21:33.738Z,52.93
2023-02-18T01:23:35.031Z,53.17
2023-02-18T01:25:36.332Z,52.89
2023-02-18T01:27:37.680Z,53.39
2023-02-18T01:29:39.031Z,52.92
2023-02-18T01:31:40.492Z,53.44
2023-02-18T01:33:41.880Z,53.40
2023-02-18T01:35:43.215Z,53.26
2023-02-18T01:37:44.504Z,53.26
2023-02-18T01:39:46.077Z,53.56
2023-02-18T01:41:47.379Z,53.57
2023-02-18T01:43:48.697Z,53.34
2023-02-18T01:45:50.550Z,53.57
2023-02-18T01:47:51.846Z,53.60
2023-02-18T01:49:53.170Z,52.99
2023-02-18T01:51:54.580Z,53.16
2023-02-18T01:53:55.951Z,53.57
2023-02-18T01:55:57.287Z,53.22
2023-02-18T01:57:58.598Z,53.61
2023-02-18T01:59:59.928Z,53.22
2023-02-18T02:02:01.331Z,53.56
2023-02-18T02:04:02.704Z,53.31
2023-02-18T02:06:03.992Z,53.42
2023-02-18T02:08:05.287Z,53.58
2023-02-18T02:10:06.619Z,53.01
2023-02-18T02:12:07.908Z,53.42
2023-02-18T02:14:09.200Z,53.32
2023-02-18T02:16:10.825Z,53.13
2023-02-18T02:18:12.347Z,53.13
2023-02-18T02:20:13.640Z,53.13
2023-02-18T02:22:14.979Z,53.61
2023-02-18T02:24:16.291Z,53.36
2023-02-18T02:26:17.597Z,53.12
2023-02-18T02:28:18.934Z,53.62
2023-02-18T02:30:20.305Z,53.42
2023-02-18T02:32:21.718Z,53.40
2023-02-18T02:34:23.017Z,53.75
2023-02-18T02:36:24.311Z,53.98
2023-02-18T02:38:25.651Z,54.11
2023-02-18T02:40:27.755Z,54.33
2023-02-18T02:42:29.155Z,54.73
2023-02-18T02:44:30.489Z,54.94
2023-02-18T02:46:31.782Z,55.57
2023-02-18T02:48:33.117Z,55.29
2023-02-18T02:50:34.448Z,55.39
2023-02-18T02:52:35.756Z,55.59
2023-02-18T02:54:37.185Z,55.94
2023-02-18T02:56:38.525Z,55.90
2023-02-18T02:58:39.856Z,55.90
2023-02-18T03:00:41.183Z,56.37
2023-02-18T03:02:42.602Z,56.36
2023-02-18T03:04:43.928Z,56.88
2023-02-18T03:06:45.230Z,57.03
2023-02-18T03:08:46.558Z,56.38
2023-02-18T03:10:47.907Z,56.40
2023-02-18T03:12:49.205Z,56.31
2023-02-18T03:14:50.511Z,56.75
2023-02-18T03:16:51.844Z,56.71
2023-02-18T03:18:53.209Z,56.33
2023-02-18T03:20:54.536Z,56.42
2023-02-18T03:22:55.900Z,55.81
2023-02-18T03:24:57.187Z,55.86
2023-02-18T03:26:58.476Z,55.76
2023-02-18T03:28:59.811Z,55.73
2023-02-18T03:31:01.172Z,55.62
2023-02-18T03:33:02.505Z,54.97
2023-02-18T03:35:03.838Z,55.33
2023-02-18T03:37:05.135Z,54.19
2023-02-18T03:39:06.474Z,53.85
2023-02-18T03:41:07.774Z,53.51
2023-02-18T03:43:09.172Z,54.00
2023-02-18T03:45:10.472Z,53.98
2023-02-18T03:47:11.799Z,54.36
2023-02-18T03:49:13.129Z,54.41
2023-02-18T03:51:14.443Z,54.24
2023-02-18T03:53:15.735Z,54.28
2023-02-18T03:55:17.057Z,54.66
2023-02-18T03:57:18.400Z,54.58
2023-02-18T03:59:19.699Z,54.68
2023-02-18T04:01:21.022Z,54.91
2023-02-18T04:03:22.320Z,54.80
2023-02-18T04:05:23.610Z,55.03
2023-02-18T04:07:24.942Z,54.88
2023-02-18T04:09:26.647Z,54.84
2023-02-18T04:11:27.954Z,54.91
2023-02-18T04:13:29.289Z,55.26
2023-02-18T04:15:30.623Z,55.16
2023-02-18T04:17:31.961Z,55.21
2023-02-18T04:19:33.271Z,54.61
2023-02-18T04:21:34.611Z,55.01
2023-02-18T04:23:35.991Z,55.11
2023-02-18T04:25:37.284Z,54.92
2023-02-18T04:27:38.588Z,54.80
2023-02-18T04:29:40.119Z,54.83
2023-02-18T04:31:41.504Z,55.04
2023-02-18T04:33:42.828Z,54.94
2023-02-18T04:35:44.126Z,54.98
2023-02-18T04:37:45.453Z,55.21
2023-02-18T04:39:46.753Z,55.54
2023-02-18T04:41:48.047Z,55.35
2023-02-18T04:43:49.383Z,55.04
2023-02-18T04:45:50.682Z,54.74
2023-02-18T04:47:52.059Z,55.20
2023-02-18T04:49:53.363Z,54.76
2023-02-18T04:51:54.666Z,54.97
2023-02-18T04:53:55.954Z,54.68
2023-02-18T04:55:57.346Z,54.92
2023-02-18T04:57:58.658Z,55.37
2023-02-18T04:59:59.956Z,54.70
2023-02-18T05:02:02.154Z,54.99
2023-02-18T05:04:03.485Z,55.09
2023-02-18T05:06:04.863Z,55.39
2023-02-18T05:08:06.182Z,55.05
2023-02-18T05:10:07.479Z,55.06
2023-02-18T05:12:08.792Z,55.22
2023-02-18T05:14:10.139Z,55.02
2023-02-18T05:16:11.810Z,55.49
2023-02-18T05:18:13.309Z,55.33
2023-02-18T05:20:14.609Z,55.28
2023-02-18T05:22:21.799Z,55.70
2023-02-18T05:24:23.100Z,55.39
2023-02-18T05:26:24.388Z,55.89
2023-02-18T05:28:25.720Z,55.54
2023-02-18T05:30:27.041Z,55.63
2023-02-18T05:32:28.451Z,55.54
2023-02-18T05:34:29.764Z,55.42
2023-02-18T05:36:31.060Z,55.79
2023-02-18T05:38:32.346Z,56.07
2023-02-18T05:40:33.641Z,55.89
2023-02-18T05:42:34.976Z,56.51
2023-02-18T05:44:36.313Z,56.46
2023-02-18T05:46:37.687Z,55.95
2023-02-18T05:48:39.037Z,56.32
2023-02-18T05:50:40.329Z,55.87
2023-02-18T05:52:41.659Z,56.26
2023-02-18T05:54:42.966Z,56.76
2023-02-18T05:56:44.291Z,56.67
2023-02-18T05:58:45.615Z,56.85
2023-02-18T06:00:46.965Z,56.74
2023-02-18T06:02:48.345Z,55.85
2023-02-18T06:04:49.779Z,55.85
2023-02-18T06:06:51.154Z,55.54
2023-02-18T06:08:52.489Z,55.92
2023-02-18T06:10:53.840Z,55.66
2023-02-18T06:12:55.165Z,56.19
2023-02-18T06:14:56.463Z,55.61
2023-02-18T06:16:57.811Z,55.60
2023-02-18T06:18:59.113Z,55.50
2023-02-18T06:21:00.603Z,55.44
2023-02-18T06:23:01.951Z,55.60
2023-02-18T06:25:03.356Z,55.31
2023-02-18T06:27:04.660Z,55.23
2023-02-18T06:29:05.987Z,55.79
2023-02-18T06:31:07.373Z,55.98
2023-02-18T06:33:08.735Z,55.94
2023-02-18T06:35:10.063Z,55.83
2023-02-18T06:37:11.356Z,56.34
2023-02-18T06:39:12.658Z,56.32
2023-02-18T06:41:13.990Z,56.28
2023-02-18T06:43:15.334Z,56.63
2023-02-18T06:45:16.674Z,57.14
2023-02-18T06:47:17.977Z,56.59
2023-02-18T06:49:19.271Z,56.26
2023-02-18T06:51:20.606Z,56.00
2023-02-18T06:53:21.942Z,56.24
2023-02-18T06:55:23.283Z,56.44
2023-02-18T06:57:24.575Z,57.02
2023-02-18T06:59:25.867Z,56.47
2023-02-18T07:01:27.250Z,56.71
2023-02-18T07:03:28.615Z,56.54
2023-02-18T07:05:29.948Z,56.85
2023-02-18T07:07:31.320Z,56.98
2023-02-18T07:09:32.615Z,57.31
2023-02-18T07:11:33.900Z,57.49
2023-02-18T07:13:35.303Z,57.39
2023-02-18T07:15:36.603Z,57.20
2023-02-18T07:17:37.900Z,57.10
2023-02-18T07:19:39.192Z,57.15
2023-02-18T07:21:40.490Z,56.94
2023-02-18T07:23:41.793Z,57.47
2023-02-18T07:25:43.136Z,57.55
2023-02-18T07:27:44.497Z,57.00
2023-02-18T07:29:45.858Z,56.86
2023-02-18T07:31:47.225Z,56.98
2023-02-18T07:33:48.584Z,56.20
2023-02-18T07:35:49.989Z,55.79
2023-02-18T07:37:51.469Z,55.92
2023-02-18T07:39:52.834Z,52.60
2023-02-18T07:41:54.167Z,51.39
2023-02-18T07:43:55.460Z,51.06
2023-02-18T07:45:56.854Z,50.35
2023-02-18T07:47:58.207Z,50.69
2023-02-18T07:49:59.591Z,50.91
2023-02-18T07:52:00.925Z,51.24
2023-02-18T07:54:02.230Z,51.29
2023-02-18T07:56:03.578Z,51.48
2023-02-18T07:58:04.931Z,52.06
2023-02-18T08:00:06.267Z,52.50
2023-02-18T08:02:07.729Z,49.70
2023-02-18T08:04:09.159Z,48.60
2023-02-18T08:06:10.853Z,48.30
2023-02-18T08:08:12.285Z,48.14
2023-02-18T08:10:14.041Z,48.29
2023-02-18T08:12:15.451Z,48.50
2023-02-18T08:14:19.831Z,48.44
2023-02-18T08:16:24.321Z,48.87
2023-02-18T08:18:25.656Z,48.97
2023-02-18T08:20:27.700Z,49.23
2023-02-18T08:22:30.490Z,49.20
2023-02-18T08:24:31.788Z,49.04
2023-02-18T08:26:33.120Z,48.90
2023-02-18T08:28:34.424Z,48.88
2023-02-18T08:30:35.864Z,49.24
2023-02-18T08:32:37.252Z,49.15
2023-02-18T08:34:38.639Z,49.17
2023-02-18T08:36:39.939Z,49.19
2023-02-18T08:38:41.248Z,49.07
2023-02-18T08:40:42.619Z,49.43
2023-02-18T08:42:43.959Z,49.24
2023-02-18T08:44:45.259Z,49.28
2023-02-18T08:46:48.202Z,49.57
2023-02-18T08:48:49.530Z,49.78
2023-02-18T08:50:50.910Z,49.94
2023-02-18T08:52:52.207Z,49.47
2023-02-18T08:54:53.552Z,49.66
2023-02-18T08:56:55.263Z,49.83
2023-02-18T08:58:56.577Z,49.87
2023-02-18T09:00:57.916Z,50.24
2023-02-18T09:02:59.248Z,50.15
2023-02-18T09:05:00.626Z,50.48
2023-02-18T09:07:02.328Z,50.16
2023-02-18T09:09:03.633Z,50.47
2023-02-18T09:11:04.983Z,50.49
2023-02-18T09:13:06.392Z,50.44
2023-02-18T09:15:07.701Z,50.48
2023-02-18T09:17:09.126Z,50.40
2023-02-18T09:19:10.415Z,50.79
2023-02-18T09:21:11.800Z,50.86
2023-02-18T09:23:13.125Z,50.96
2023-02-18T09:25:14.467Z,50.83
2023-02-18T09:27:15.788Z,50.98
2023-02-18T09:29:17.211Z,51.08
2023-02-18T09:31:18.621Z,50.99
2023-02-18T09:33:20.005Z,51.07
2023-02-18T09:35:21.381Z,50.92
2023-02-18T09:37:22.675Z,51.70
2023-02-18T09:39:24.004Z,53.22
2023-02-18T09:41:25.353Z,51.02
2023-02-18T09:43:26.668Z,48.45
2023-02-18T09:45:28.014Z,48.66
2023-02-18T09:47:29.359Z,49.52
2023-02-18T09:49:31.296Z,49.27
2023-02-18T09:51:32.628Z,50.79
2023-02-18T09:53:33.923Z,50.56
2023-02-18T09:55:36.367Z,50.34
2023-02-18T09:57:37.691Z,50.35
2023-02-18T09:59:38.984Z,50.99
2023-02-18T10:01:40.393Z,49.79
2023-02-18T10:03:43.817Z,50.21
2023-02-18T10:05:45.112Z,49.27
2023-02-18T10:07:46.411Z,49.63
2023-02-18T10:09:48.535Z,48.86
2023-02-18T10:11:49.887Z,49.39
2023-02-18T10:13:51.290Z,50.63
2023-02-18T10:15:52.689Z,50.54
2023-02-18T10:17:54.068Z,50.51
2023-02-18T10:19:55.410Z,50.90
2023-02-18T10:21:56.784Z,50.90
2023-02-18T10:23:58.535Z,50.80
2023-02-18T10:25:59.905Z,50.75
2023-02-18T10:28:01.225Z,50.91
2023-02-18T10:30:02.572Z,50.96
2023-02-18T10:32:03.901Z,51.41
2023-02-18T10:34:05.224Z,51.26
2023-02-18T10:36:06.556Z,51.17
2023-02-18T10:38:07.889Z,51.33
2023-02-18T10:40:09.185Z,51.35
2023-02-18T10:42:10.671Z,51.25
2023-02-18T10:44:12.018Z,51.47
2023-02-18T10:46:13.799Z,51.58
2023-02-18T10:48:15.363Z,51.40
2023-02-18T10:50:16.672Z,51.40
2023-02-18T10:52:17.967Z,51.07
2023-02-18T10:54:19.308Z,51.65
2023-02-18T10:56:20.702Z,51.33
2023-02-18T10:58:22.023Z,51.26
2023-02-18T11:00:24.132Z,51.50
2023-02-18T11:02:25.540Z,51.21
2023-02-18T11:04:26.890Z,51.32
2023-02-18T11:06:28.239Z,50.86
2023-02-18T11:08:30.207Z,50.91
2023-02-18T11:10:31.583Z,51.08
2023-02-18T11:12:32.894Z,50.76
2023-02-18T11:14:34.199Z,50.49
2023-02-18T11:16:35.500Z,50.75
2023-02-18T11:18:36.888Z,50.17
2023-02-18T11:20:38.192Z,50.48
2023-02-18T11:22:41.421Z,50.35
2023-02-18T11:24:48.191Z,50.38
2023-02-18T11:26:49.503Z,50.64
2023-02-18T11:28:50.849Z,50.65
2023-02-18T11:30:52.163Z,49.54
2023-02-18T11:32:53.503Z,50.51
2023-02-18T11:34:54.795Z,50.99
2023-02-18T11:36:56.140Z,50.38
2023-02-18T11:38:57.561Z,50.41
2023-02-18T11:40:58.891Z,50.58
2023-02-18T11:43:00.240Z,50.45
2023-02-18T11:45:04.472Z,50.84
2023-02-18T11:47:06.783Z,50.70
2023-02-18T11:49:08.087Z,50.75
2023-02-18T11:51:09.632Z,51.00
2023-02-18T11:53:11.123Z,51.20
2023-02-18T11:55:15.436Z,50.90
2023-02-18T11:57:17.043Z,50.63
2023-02-18T11:59:18.330Z,50.84
2023-02-18T12:01:19.666Z,51.32
2023-02-18T12:03:20.975Z,50.89
2023-02-18T12:05:23.024Z,50.77
2023-02-18T12:07:24.376Z,50.67
2023-02-18T12:09:25.675Z,50.67
2023-02-18T12:11:27.026Z,50.85
2023-02-18T12:13:28.332Z,50.69
2023-02-18T12:15:29.628Z,51.20
2023-02-18T12:17:31.245Z,50.88
2023-02-18T12:19:32.822Z,50.67
2023-02-18T12:21:34.127Z,51.03
2023-02-18T12:23:35.465Z,50.83
2023-02-18T12:25:43.099Z,50.98
2023-02-18T12:27:44.439Z,50.64
2023-02-18T12:29:45.732Z,50.93
2023-02-18T12:31:47.058Z,51.38
2023-02-18T12:33:48.460Z,50.84
2023-02-18T12:35:49.962Z,50.85
2023-02-18T12:37:51.303Z,49.27
2023-02-18T12:39:52.694Z,48.45
2023-02-18T12:41:53.985Z,48.32
2023-02-18T12:43:55.291Z,48.63
2023-02-18T12:45:57.308Z,49.90
2023-02-18T12:47:58.696Z,50.39
2023-02-18T12:50:00.039Z,49.26
2023-02-18T12:52:02.255Z,49.68
2023-02-18T12:54:06.004Z,49.16
2023-02-18T12:56:08.601Z,49.13
2023-02-18T12:58:10.105Z,50.38
2023-02-18T13:00:11.430Z,51.00
2023-02-18T13:02:12.790Z,51.54
2023-02-18T13:04:14.930Z,51.90
2023-02-18T13:06:17.127Z,51.93
2023-02-18T13:08:18.474Z,51.76
2023-02-18T13:10:19.797Z,52.12
2023-02-18T13:12:21.096Z,52.33
2023-02-18T13:14:22.396Z,51.94
2023-02-18T13:16:26.723Z,52.61
2023-02-18T13:18:28.053Z,52.61
2023-02-18T13:20:32.427Z,52.63
2023-02-18T13:22:33.725Z,52.97
2023-02-18T13:24:35.113Z,52.87
2023-02-18T13:26:36.525Z,52.74
2023-02-18T13:28:37.828Z,53.15
2023-02-18T13:30:39.347Z,53.28
2023-02-18T13:32:40.729Z,53.50
2023-02-18T13:34:43.010Z,53.29
2023-02-18T13:36:44.312Z,53.57
2023-02-18T13:38:45.634Z,53.53
2023-02-18T13:40:46.967Z,53.52
2023-02-18T13:42:48.323Z,53.42
2023-02-18T13:44:49.652Z,53.09
2023-02-18T13:46:51.009Z,53.29
2023-02-18T13:48:52.837Z,53.42
2023-02-18T13:50:54.300Z,53.21
2023-02-18T13:52:55.652Z,53.31
2023-02-18T13:54:56.983Z,53.71
2023-02-18T13:56:58.310Z,53.48
2023-02-18T13:59:00.333Z,53.67
2023-02-18T14:01:02.207Z,54.00
2023-02-18T14:03:03.538Z,53.99
2023-02-18T14:05:07.543Z,53.70
2023-02-18T14:07:08.879Z,53.90
2023-02-18T14:09:10.180Z,53.49
2023-02-18T14:11:11.524Z,53.71
2023-02-18T14:13:12.821Z,53.17
2023-02-18T14:15:14.122Z,53.50
2023-02-18T14:17:15.505Z,53.35
2023-02-18T14:19:16.838Z,53.26
2023-02-18T14:21:18.194Z,52.85
2023-02-18T14:23:19.597Z,53.22
2023-02-18T14:25:20.966Z,52.79
2023-02-18T14:27:22.289Z,53.24
2023-02-18T14:29:23.619Z,53.15
2023-02-18T14:31:30.271Z,53.14
2023-02-18T14:33:32.542Z,53.41
2023-02-18T14:35:34.119Z,53.54
2023-02-18T14:37:36.592Z,53.21
2023-02-18T14:39:37.950Z,53.19
2023-02-18T14:41:39.240Z,53.15
2023-02-18T14:43:40.974Z,53.16
2023-02-18T14:45:45.382Z,53.19
2023-02-18T14:47:46.715Z,52.93
2023-02-18T14:49:48.147Z,53.01
2023-02-18T14:51:49.477Z,52.91
2023-02-18T14:53:50.836Z,51.58
2023-02-18T14:55:52.174Z,53.04
2023-02-18T14:57:53.598Z,50.35
2023-02-18T14:59:54.893Z,51.37
2023-02-18T15:01:56.536Z,52.23
2023-02-18T15:03:57.892Z,51.95
2023-02-18T15:05:59.215Z,52.08
2023-02-18T15:08:00.588Z,52.13
2023-02-18T15:10:02.196Z,52.46
2023-02-18T15:12:04.614Z,51.77
2023-02-18T15:14:06.109Z,52.38
2023-02-18T15:16:07.997Z,51.66
2023-02-18T15:18:09.622Z,51.43
2023-02-18T15:20:10.924Z,51.30
2023-02-18T15:22:12.235Z,51.88
2023-02-18T15:24:13.716Z,51.26
2023-02-18T15:26:15.185Z,50.83
2023-02-18T15:28:16.488Z,51.89
2023-02-18T15:30:17.975Z,53.55
2023-02-18T15:32:19.525Z,53.23
2023-02-18T15:34:20.919Z,51.57
2023-02-18T15:36:22.246Z,51.32
2023-02-18T15:38:23.555Z,51.25
2023-02-18T15:40:24.852Z,51.45
2023-02-18T15:42:26.283Z,52.31
2023-02-18T15:44:27.592Z,52.44
2023-02-18T15:46:28.949Z,52.59
2023-02-18T15:48:33.115Z,52.71
2023-02-18T15:50:37.444Z,52.60
2023-02-18T15:52:39.272Z,52.17
2023-02-18T15:54:41.263Z,52.39
2023-02-18T15:56:42.604Z,51.70
2023-02-18T15:58:43.920Z,51.14
2023-02-18T16:00:45.290Z,51.16
2023-02-18T16:02:49.698Z,51.36
2023-02-18T16:04:51.027Z,51.01
2023-02-18T16:06:52.342Z,52.46
2023-02-18T16:08:53.643Z,52.25
2023-02-18T16:10:55.028Z,51.33
2023-02-18T16:13:02.913Z,51.11
2023-02-18T16:15:04.253Z,51.64
2023-02-18T16:17:05.552Z,49.74
2023-02-18T16:19:06.848Z,49.76
2023-02-18T16:21:09.716Z,49.71
2023-02-18T16:23:11.052Z,49.36
2023-02-18T16:25:12.384Z,49.71
2023-02-18T16:27:14.716Z,50.47
2023-02-18T16:29:16.019Z,51.17
2023-02-18T16:31:17.426Z,51.22
2023-02-18T16:33:18.759Z,51.52
2023-02-18T16:35:20.282Z,51.92
2023-02-18T16:37:39.700Z,49.70
2023-02-18T16:39:41.000Z,49.33
2023-02-18T16:41:42.303Z,50.83
2023-02-18T16:43:43.645Z,51.41
2023-02-18T16:45:46.074Z,50.97
2023-02-18T16:47:48.998Z,51.49
2023-02-18T16:49:50.340Z,50.79
2023-02-18T16:51:51.714Z,51.35
2023-02-18T16:53:53.560Z,51.75
2023-02-18T16:55:57.808Z,51.90
2023-02-18T16:57:59.193Z,52.17
2023-02-18T17:00:00.774Z,52.07
2023-02-18T17:02:04.904Z,52.29
2023-02-18T17:04:06.283Z,52.38
2023-02-18T17:06:07.916Z,52.13
2023-02-18T17:08:09.549Z,52.18
2023-02-18T17:10:10.845Z,52.13
2023-02-18T17:12:13.383Z,52.36
2023-02-18T17:14:14.743Z,52.09
2023-02-18T17:16:16.101Z,52.15
2023-02-18T17:18:17.421Z,52.60
2023-02-18T17:20:18.956Z,52.49
2023-02-18T17:22:20.367Z,52.36
2023-02-18T17:24:21.659Z,52.54
2023-02-18T17:26:24.651Z,52.28
2023-02-18T17:28:25.992Z,52.55
2023-02-18T17:30:27.330Z,52.36
2023-02-18T17:32:29.357Z,52.23
2023-02-18T17:34:32.478Z,52.26
2023-02-18T17:36:33.797Z,52.20
2023-02-18T17:38:35.138Z,51.80
2023-02-18T17:40:36.437Z,52.11
2023-02-18T17:42:37.794Z,51.41
2023-02-18T17:44:39.088Z,51.40
2023-02-18T17:46:40.399Z,50.98
2023-02-18T17:48:41.767Z,51.12
2023-02-18T17:50:43.066Z,50.94
2023-02-18T17:52:44.419Z,51.33
2023-02-18T17:54:45.724Z,50.64
2023-02-18T17:56:47.064Z,50.48
2023-02-18T17:58:48.844Z,50.56
2023-02-18T18:00:50.251Z,50.61
2023-02-18T18:02:54.260Z,50.72
2023-02-18T18:04:55.583Z,50.89
2023-02-18T18:06:56.942Z,50.94
2023-02-18T18:08:58.271Z,50.97
2023-02-18T18:10:59.559Z,51.08
2023-02-18T18:13:02.253Z,50.95
2023-02-18T18:15:04.755Z,51.01
2023-02-18T18:17:06.118Z,50.79
2023-02-18T18:19:07.423Z,51.23
2023-02-18T18:21:09.069Z,51.16
2023-02-18T18:23:10.503Z,51.36
2023-02-18T18:25:11.803Z,51.28
2023-02-18T18:27:13.414Z,51.47
2023-02-18T18:29:17.750Z,51.22
2023-02-18T18:31:22.139Z,51.61
2023-02-18T18:33:23.547Z,51.54
2023-02-18T18:35:24.950Z,51.44
2023-02-18T18:37:26.331Z,51.68
2023-02-18T18:39:27.717Z,51.43
2023-02-18T18:41:29.016Z,51.42
2023-02-18T18:43:32.794Z,51.72
2023-02-18T18:45:34.518Z,51.67
2023-02-18T18:47:35.819Z,51.45
2023-02-18T18:49:38.889Z,51.80
2023-02-18T18:51:40.349Z,51.64
2023-02-18T18:53:41.679Z,51.99
2023-02-18T18:55:43.105Z,51.41
2023-02-18T18:57:46.891Z,51.96
2023-02-18T18:59:48.524Z,51.91
2023-02-18T19:01:49.827Z,51.48
2023-02-18T19:03:51.186Z,51.54
2023-02-18T19:05:52.544Z,51.83
2023-02-18T19:07:53.887Z,51.75
2023-02-18T19:09:55.187Z,51.19
2023-02-18T19:11:56.482Z,51.18
2023-02-18T19:13:57.819Z,51.15
2023-02-18T19:15:59.197Z,51.22
2023-02-18T19:18:00.574Z,51.36
2023-02-18T19:20:02.198Z,50.97
2023-02-18T19:22:03.694Z,50.89
2023-02-18T19:24:04.985Z,50.78
2023-02-18T19:26:06.281Z,50.58
2023-02-18T19:28:07.674Z,50.74
2023-02-18T19:30:10.321Z,50.87
2023-02-18T19:32:11.720Z,50.38
2023-02-18T19:34:13.049Z,50.57
2023-02-18T19:36:14.903Z,50.48
2023-02-18T19:38:16.271Z,50.95
2023-02-18T19:40:17.611Z,50.66
2023-02-18T19:42:21.924Z,50.48
2023-02-18T19:44:23.235Z,50.63
2023-02-18T19:46:24.587Z,50.53
2023-02-18T19:48:28.812Z,50.96
2023-02-18T19:50:33.254Z,50.79
2023-02-18T19:52:34.551Z,50.94
2023-02-18T19:54:35.848Z,50.87
2023-02-18T19:56:37.126Z,51.06
2023-02-18T19:58:40.171Z,57.28
2023-02-18T20:00:43.670Z,50.81
2023-02-18T20:02:45.036Z,50.35
2023-02-18T20:04:46.390Z,50.83
2023-02-18T20:06:47.834Z,50.86
2023-02-18T20:08:49.178Z,50.47
2023-02-18T20:10:50.472Z,50.80
2023-02-18T20:12:54.698Z,51.52
2023-02-18T20:15:01.738Z,52.11
2023-02-18T20:17:03.035Z,51.88
2023-02-18T20:19:04.364Z,51.69
2023-02-18T20:21:05.703Z,51.98
2023-02-18T20:23:07.075Z,52.40
2023-02-18T20:25:08.423Z,52.62
2023-02-18T20:27:09.911Z,53.00
2023-02-18T20:29:11.247Z,52.29
2023-02-18T20:31:13.268Z,54.91
2023-02-18T20:33:14.840Z,51.53
2023-02-18T20:35:16.130Z,51.71
2023-02-18T20:37:17.463Z,52.54
2023-02-18T20:39:18.841Z,51.11
2023-02-18T20:41:20.153Z,51.50
2023-02-18T20:43:29.970Z,50.84
2023-02-18T20:45:31.272Z,51.50
2023-02-18T20:47:32.604Z,52.25
2023-02-18T20:49:42.242Z,52.31
2023-02-18T20:51:43.548Z,52.71
2023-02-18T20:53:44.886Z,51.39
2023-02-18T20:55:46.810Z,52.57
2023-02-18T20:57:48.456Z,51.98
2023-02-18T20:59:49.818Z,52.44
2023-02-18T21:01:51.212Z,52.55
2023-02-18T21:03:52.599Z,52.33
2023-02-18T21:05:53.892Z,52.29
2023-02-18T21:07:55.214Z,52.29
2023-02-18T21:09:56.522Z,52.23
2023-02-18T21:12:00.855Z,52.44
2023-02-18T21:14:02.271Z,52.29
2023-02-18T21:16:03.612Z,52.56
2023-02-18T21:18:04.948Z,52.77
2023-02-18T21:20:06.245Z,52.70
2023-02-18T21:22:07.565Z,52.15
2023-02-18T21:24:08.880Z,52.35
2023-02-18T21:26:10.275Z,51.55
2023-02-18T21:28:11.611Z,50.90
2023-02-18T21:30:13.000Z,51.72
2023-02-18T21:32:14.451Z,51.81
2023-02-18T21:34:15.886Z,51.17
2023-02-18T21:36:17.215Z,50.67
2023-02-18T21:38:18.515Z,50.47
2023-02-18T21:40:20.005Z,51.32
2023-02-18T21:42:21.353Z,50.90
2023-02-18T21:44:27.383Z,51.65
2023-02-18T21:46:38.082Z,52.12
2023-02-18T21:48:57.911Z,52.40
2023-02-18T21:50:59.233Z,51.58
2023-02-18T21:53:00.635Z,51.59
2023-02-18T21:55:01.980Z,52.05
2023-02-18T21:57:06.055Z,51.52
2023-02-18T21:59:07.360Z,51.86
2023-02-18T22:01:09.040Z,51.75
2023-02-18T22:03:10.499Z,52.14
2023-02-18T22:05:11.807Z,52.05
2023-02-18T22:07:13.103Z,52.16
2023-02-18T22:09:14.416Z,52.39
2023-02-18T22:11:15.807Z,52.95
2023-02-18T22:13:17.124Z,52.66
2023-02-18T22:15:18.455Z,52.43
2023-02-18T22:17:21.518Z,52.05
2023-02-18T22:19:22.890Z,52.38
2023-02-18T22:21:24.229Z,52.41
2023-02-18T22:23:28.441Z,52.16
2023-02-18T22:25:29.778Z,52.18
2023-02-18T22:27:31.082Z,51.93
2023-02-18T22:29:32.397Z,51.97
2023-02-18T22:31:33.831Z,52.50
2023-02-18T22:33:35.171Z,52.23
2023-02-18T22:35:36.510Z,52.67
2023-02-18T22:37:37.830Z,52.22
2023-02-18T22:39:39.135Z,52.16
2023-02-18T22:41:40.438Z,51.66
2023-02-18T22:43:41.747Z,52.14
2023-02-18T22:45:43.162Z,52.48
2023-02-18T22:47:44.496Z,51.88
2023-02-18T22:49:45.807Z,53.41
2023-02-18T22:51:47.147Z,53.17
2023-02-18T22:53:48.441Z,52.64
2023-02-18T22:55:49.740Z,52.69
2023-02-18T22:57:51.030Z,53.17
2023-02-18T22:59:52.329Z,52.37
2023-02-18T23:01:53.789Z,52.92
2023-02-18T23:03:55.195Z,52.39
2023-02-18T23:05:56.516Z,53.42
2023-02-18T23:07:57.848Z,54.09
2023-02-18T23:09:59.205Z,52.67
2023-02-18T23:12:00.532Z,51.64
2023-02-18T23:14:27.879Z,51.83
2023-02-18T23:16:29.200Z,52.01
2023-02-18T23:18:30.531Z,52.17
2023-02-18T23:20:50.469Z,52.72
2023-02-18T23:22:51.771Z,52.65
2023-02-18T23:24:53.062Z,52.30
2023-02-18T23:26:54.358Z,52.47
2023-02-18T23:28:55.658Z,51.48
2023-02-18T23:30:56.996Z,51.92
2023-02-18T23:32:58.371Z,52.42
2023-02-18T23:34:59.668Z,52.56
2023-02-18T23:37:01.040Z,52.37
2023-02-18T23:39:02.394Z,52.55
2023-02-18T23:41:03.683Z,52.20
2023-02-18T23:43:08.072Z,52.07
2023-02-18T23:45:09.378Z,52.44
2023-02-18T23:47:10.704Z,52.54
2023-02-18T23:49:11.996Z,52.79
2023-02-18T23:51:13.296Z,53.10
2023-02-18T23:53:14.619Z,52.51
2023-02-18T23:55:15.906Z,53.35
2023-02-18T23:57:17.197Z,53.26
2023-02-18T23:59:18.554Z,51.09
